Time;durP1;ratioP1;P1;durP2;ratioP2;P2;SDS_P1;SDS_P2;PMS_P1;PMS_P2;Temp;Humidity;BMP_temperature;BMP_pressure;BME280_temperature;BME280_humidity;BME280_pressure;Samples;Min_cycle;Max_cycle;Signal;HPM_P1;HPM_P2
2023/06/14 00:01:48;;;;;;;7.75;1.90;;;14.70;99.90;;;;;;5092447;28;20055;-57
2023/06/14 00:04:18;;;;;;;6.32;1.73;;;14.80;99.90;;;;;;5072196;28;20083;-57
2023/06/14 00:06:45;;;;;;;4.20;1.50;;;14.50;99.90;;;;;;5092330;28;20420;-57
2023/06/14 00:09:17;;;;;;;5.00;1.67;;;14.60;99.90;;;;;;5093029;28;20147;-57
2023/06/14 00:11:43;;;;;;;6.18;1.80;;;14.40;99.90;;;;;;5090853;28;20044;-57
2023/06/14 00:14:09;;;;;;;8.32;1.80;;;14.70;99.90;;;;;;5090764;28;20180;-56
2023/06/14 00:16:35;;;;;;;5.75;1.90;;;14.50;99.90;;;;;;5092182;28;20059;-57
2023/06/14 00:19:03;;;;;;;5.45;2.00;;;14.50;99.90;;;;;;5089965;28;20039;-57
2023/06/14 00:21:29;;;;;;;4.80;2.08;;;14.40;99.90;;;;;;5090644;28;20039;-57
2023/06/14 00:23:57;;;;;;;4.22;1.80;;;14.60;99.90;;;;;;5070841;28;20044;-57
2023/06/14 00:26:23;;;;;;;4.40;2.10;;;14.50;99.90;;;;;;5091443;28;20039;-56
2023/06/14 00:28:48;;;;;;;8.27;2.42;;;14.20;99.90;;;;;;5090786;28;20408;-57
2023/06/14 00:31:14;;;;;;;5.72;1.85;;;14.30;99.90;;;;;;5092964;28;20081;-58
2023/06/14 00:33:40;;;;;;;5.22;1.90;;;14.40;99.90;;;;;;5090220;28;20157;-57
2023/06/14 00:36:06;;;;;;;5.35;1.83;;;14.20;99.90;;;;;;5091367;28;20117;-58
2023/06/14 00:38:31;;;;;;;7.85;1.80;;;14.10;99.90;;;;;;5092363;28;20041;-57
2023/06/14 00:40:57;;;;;;;4.57;1.90;;;14.30;99.90;;;;;;5073066;28;20146;-58
2023/06/14 00:43:23;;;;;;;5.15;2.47;;;14.10;99.90;;;;;;5090826;28;20071;-57
2023/06/14 00:45:49;;;;;;;6.95;1.90;;;14.20;99.90;;;;;;5091851;28;20111;-58
2023/06/14 00:48:15;;;;;;;6.25;1.90;;;14.20;99.90;;;;;;5074403;28;20047;-57
2023/06/14 00:50:41;;;;;;;5.95;2.13;;;14.10;99.90;;;;;;5091224;28;20365;-58
2023/06/14 00:53:07;;;;;;;4.82;1.80;;;14.30;99.90;;;;;;5092406;28;20055;-58
2023/06/14 00:55:33;;;;;;;5.97;2.10;;;14.10;99.90;;;;;;5091071;28;20098;-57
2023/06/14 00:58:00;;;;;;;7.90;1.95;;;14.00;99.90;;;;;;5091556;28;20063;-56
2023/06/14 01:00:25;;;;;;;4.07;2.00;;;14.00;99.90;;;;;;5091780;28;20078;-57
2023/06/14 01:02:51;;;;;;;6.70;1.92;;;13.90;99.90;;;;;;5090261;28;20123;-57
2023/06/14 01:05:18;;;;;;;11.57;2.10;;;14.20;99.90;;;;;;5093401;28;20082;-57
2023/06/14 01:08:04;;;;;;;4.28;1.77;;;14.10;99.90;;;;;;5090946;28;20043;-57
2023/06/14 01:10:51;;;;;;;8.60;2.30;;;13.90;99.90;;;;;;5090542;28;20056;-58
2023/06/14 01:13:36;;;;;;;8.35;1.80;;;14.00;99.90;;;;;;5090054;28;20044;-58
2023/06/14 01:16:03;;;;;;;5.07;1.95;;;14.00;99.90;;;;;;5090754;28;20059;-57
2023/06/14 01:18:29;;;;;;;7.55;1.63;;;13.90;99.90;;;;;;5092016;28;20181;-58
2023/06/14 01:20:55;;;;;;;4.72;1.67;;;13.80;99.90;;;;;;5089465;28;20512;-57
2023/06/14 01:23:22;;;;;;;5.05;1.65;;;13.90;99.90;;;;;;5090203;28;20040;-57
2023/06/14 01:25:52;;;;;;;6.35;1.85;;;13.80;99.90;;;;;;5071471;28;20408;-57
2023/06/14 01:28:21;;;;;;;4.03;1.92;;;13.70;99.90;;;;;;5090799;28;21037;-57
2023/06/14 01:31:00;;;;;;;3.85;1.80;;;13.70;99.90;;;;;;5089527;28;20097;-58
2023/06/14 01:33:28;;;;;;;5.28;1.63;;;13.80;99.90;;;;;;5090469;28;20100;-57
2023/06/14 01:35:56;;;;;;;9.77;1.67;;;13.50;99.90;;;;;;5072429;28;20149;-57
2023/06/14 01:38:26;;;;;;;6.22;1.75;;;13.50;99.90;;;;;;5067636;28;20153;-58
2023/06/14 01:40:55;;;;;;;6.10;1.83;;;13.70;99.90;;;;;;5094842;28;20039;-57
2023/06/14 01:43:22;;;;;;;4.13;1.67;;;13.30;99.90;;;;;;5095283;28;20050;-57
2023/06/14 01:45:51;;;;;;;9.20;2.35;;;13.40;99.90;;;;;;5076748;28;20044;-58
2023/06/14 01:48:17;;;;;;;5.93;1.70;;;12.10;99.90;;;;;;5094956;28;20888;-58
2023/06/14 01:50:43;;;;;;;5.78;2.00;;;13.40;99.90;;;;;;5093891;28;20058;-58
2023/06/14 01:53:10;;;;;;;7.40;1.58;;;13.40;99.90;;;;;;5093562;28;20052;-57
2023/06/14 01:55:43;;;;;;;5.03;1.85;;;13.40;99.90;;;;;;5094249;28;20127;-57
2023/06/14 01:58:09;;;;;;;4.63;1.70;;;13.20;99.90;;;;;;5094174;28;20116;-57
2023/06/14 02:00:35;;;;;;;4.20;1.60;;;13.10;99.90;;;;;;5095909;28;20219;-57
2023/06/14 02:03:04;;;;;;;5.90;1.90;;;13.20;99.90;;;;;;5093928;28;20032;-57
2023/06/14 02:05:30;;;;;;;7.82;1.70;;;13.20;99.90;;;;;;5095207;28;20034;-57
2023/06/14 02:07:55;;;;;;;5.13;1.80;;;13.40;99.90;;;;;;5093354;28;20048;-57
2023/06/14 02:10:21;;;;;;;5.75;1.75;;;13.20;99.90;;;;;;5096012;28;20114;-57
2023/06/14 02:12:47;;;;;;;6.80;1.73;;;13.20;99.90;;;;;;5093276;28;20039;-57
2023/06/14 02:15:16;;;;;;;5.13;1.52;;;13.00;99.90;;;;;;5094019;28;20345;-58
2023/06/14 02:17:43;;;;;;;5.88;2.05;;;13.10;99.90;;;;;;5095393;28;20039;-57
2023/06/14 02:20:09;;;;;;;6.55;1.90;;;12.90;99.90;;;;;;5095628;28;20443;-57
2023/06/14 02:22:35;;;;;;;3.95;1.70;;;13.10;99.90;;;;;;5093952;28;20047;-57
2023/06/14 02:25:01;;;;;;;6.72;2.15;;;13.10;99.90;;;;;;5094071;28;20047;-57
2023/06/14 02:27:26;;;;;;;5.68;1.83;;;13.00;99.90;;;;;;5095888;28;20500;-57
2023/06/14 02:29:52;;;;;;;7.25;1.95;;;12.70;99.90;;;;;;5094653;28;20036;-58
2023/06/14 02:32:18;;;;;;;5.38;2.10;;;13.10;99.90;;;;;;5094381;28;20066;-58
2023/06/14 02:34:44;;;;;;;9.85;2.20;;;13.00;99.90;;;;;;5094169;28;20162;-57
2023/06/14 02:37:10;;;;;;;6.13;2.45;;;13.10;99.90;;;;;;5076388;28;20078;-57
2023/06/14 02:39:36;;;;;;;6.78;1.90;;;12.90;99.90;;;;;;5092597;28;20044;-57
2023/06/14 02:42:02;;;;;;;5.97;2.00;;;12.90;99.90;;;;;;5069845;28;20092;-57
2023/06/14 02:44:29;;;;;;;7.07;1.85;;;12.90;99.90;;;;;;5094332;28;20248;-57
2023/06/14 02:46:55;;;;;;;5.22;2.08;;;12.70;99.90;;;;;;5093494;28;20053;-57
2023/06/14 02:49:22;;;;;;;8.32;1.95;;;11.20;99.90;;;;;;5094592;28;20484;-57
2023/06/14 02:51:48;;;;;;;7.10;2.28;;;12.90;99.90;;;;;;5091468;28;20783;-57
2023/06/14 02:54:14;;;;;;;5.40;2.30;;;12.80;99.90;;;;;;5093488;28;20075;-57
2023/06/14 02:56:40;;;;;;;5.38;2.10;;;12.60;99.90;;;;;;5092600;28;20046;-57
2023/06/14 02:59:07;;;;;;;7.38;2.05;;;12.80;99.90;;;;;;5093327;28;20098;-57
2023/06/14 03:01:40;;;;;;;7.63;2.10;;;12.80;99.90;;;;;;5092134;28;20529;-57
2023/06/14 03:04:09;;;;;;;8.45;2.03;;;12.90;99.90;;;;;;5092205;28;20082;-57
2023/06/14 03:06:36;;;;;;;11.02;2.08;;;12.70;99.90;;;;;;5092253;28;20463;-58
2023/06/14 03:09:06;;;;;;;3.75;2.03;;;12.70;99.90;;;;;;5093299;28;20068;-57
2023/06/14 03:11:32;;;;;;;5.68;2.05;;;15.10;99.90;;;;;;5093058;28;20473;-57
2023/06/14 03:13:59;;;;;;;7.65;2.42;;;12.80;99.90;;;;;;5091696;28;20122;-57
2023/06/14 03:16:24;;;;;;;6.15;2.20;;;12.90;99.90;;;;;;5091569;28;20039;-57
2023/06/14 03:18:51;;;;;;;5.35;2.35;;;12.90;99.90;;;;;;5093902;28;20036;-57
2023/06/14 03:21:19;;;;;;;5.72;2.20;;;12.90;99.90;;;;;;5092444;28;20286;-58
2023/06/14 03:23:45;;;;;;;8.27;2.50;;;12.90;99.90;;;;;;5091377;28;20046;-57
2023/06/14 03:26:13;;;;;;;4.47;2.28;;;13.10;99.90;;;;;;5073986;28;20039;-57
2023/06/14 03:28:40;;;;;;;5.68;2.33;;;13.10;99.90;;;;;;5091532;28;20527;-58
2023/06/14 03:31:06;;;;;;;4.68;1.95;;;13.50;99.90;;;;;;5073767;28;20798;-58
2023/06/14 03:33:32;;;;;;;5.45;2.15;;;13.40;99.90;;;;;;5091489;28;20039;-57
2023/06/14 03:35:57;;;;;;;4.60;2.15;;;13.40;99.90;;;;;;5091621;28;20054;-57
2023/06/14 03:38:23;;;;;;;5.25;2.13;;;13.50;99.90;;;;;;5091593;28;20048;-57
2023/06/14 03:40:49;;;;;;;8.38;2.70;;;13.50;99.90;;;;;;5093543;28;20032;-58
2023/06/14 03:43:15;;;;;;;5.70;2.50;;;13.70;99.90;;;;;;5090851;28;20046;-56
2023/06/14 03:45:40;;;;;;;6.30;2.22;;;13.60;99.90;;;;;;5093034;28;20438;-57
2023/06/14 03:48:08;;;;;;;5.57;2.15;;;13.70;99.90;;;;;;5073602;28;20039;-57
2023/06/14 03:50:34;;;;;;;7.90;2.28;;;13.80;99.90;;;;;;5092710;28;20051;-57
2023/06/14 03:53:01;;;;;;;8.85;2.50;;;13.50;99.90;;;;;;5090843;28;20043;-57
2023/06/14 03:55:27;;;;;;;6.13;2.45;;;13.60;99.90;;;;;;5090637;28;20461;-56
2023/06/14 03:57:53;;;;;;;5.93;2.00;;;12.50;99.90;;;;;;5088744;28;20060;-57
2023/06/14 04:00:19;;;;;;;5.25;2.28;;;14.00;99.90;;;;;;5074105;28;20097;-57
2023/06/14 04:02:45;;;;;;;5.05;2.13;;;14.00;99.90;;;;;;5089469;28;20420;-56
2023/06/14 04:05:11;;;;;;;5.07;2.28;;;14.00;99.90;;;;;;5072768;28;20273;-57
2023/06/14 04:07:44;;;;;;;5.18;2.40;;;13.90;99.90;;;;;;5073089;28;20480;-57
2023/06/14 04:10:11;;;;;;;4.63;2.33;;;14.10;99.90;;;;;;5073484;28;20036;-57
2023/06/14 04:12:37;;;;;;;5.55;2.00;;;14.10;99.90;;;;;;5090208;28;20112;-58
2023/06/14 04:15:05;;;;;;;8.35;2.30;;;14.10;99.90;;;;;;5091016;28;20443;-57
2023/06/14 04:17:32;;;;;;;5.78;2.42;;;14.20;99.90;;;;;;5091225;28;20085;-57
2023/06/14 04:19:59;;;;;;;7.18;2.35;;;14.20;99.90;;;;;;5092658;28;20058;-57
2023/06/14 04:22:28;;;;;;;4.85;2.30;;;14.20;99.90;;;;;;5090744;28;20047;-57
2023/06/14 04:24:57;;;;;;;5.43;2.42;;;14.20;99.90;;;;;;5071846;28;20044;-57
2023/06/14 04:27:25;;;;;;;7.75;2.15;;;14.20;99.90;;;;;;5091525;28;20097;-57
2023/06/14 04:29:59;;;;;;;5.18;2.40;;;14.50;99.90;;;;;;5090679;28;20145;-57
2023/06/14 04:32:33;;;;;;;4.80;2.10;;;14.50;99.90;;;;;;5092252;28;20051;-57
2023/06/14 04:35:01;;;;;;;4.35;2.17;;;14.50;99.90;;;;;;5090053;28;20072;-56
2023/06/14 04:37:29;;;;;;;7.13;2.47;;;14.60;99.90;;;;;;5090078;28;20429;-57
2023/06/14 04:39:57;;;;;;;7.95;2.40;;;14.70;99.90;;;;;;5071700;28;20040;-57
2023/06/14 04:42:29;;;;;;;6.38;2.55;;;14.60;99.90;;;;;;5091027;28;20063;-56
2023/06/14 04:44:55;;;;;;;5.85;2.75;;;14.70;99.90;;;;;;5089702;28;20457;-56
2023/06/14 04:47:21;;;;;;;6.38;2.50;;;14.70;99.90;;;;;;5090501;28;20044;-57
2023/06/14 04:49:47;;;;;;;10.88;2.17;;;14.70;99.90;;;;;;5090998;28;20077;-56
2023/06/14 04:52:13;;;;;;;5.30;2.22;;;14.80;99.90;;;;;;5092661;28;20330;-57
2023/06/14 04:54:43;;;;;;;6.47;2.22;;;14.80;99.90;;;;;;5089996;28;20043;-57
2023/06/14 04:57:14;;;;;;;8.40;2.75;;;14.90;99.90;;;;;;5091933;28;20046;-57
2023/06/14 04:59:40;;;;;;;8.13;2.43;;;14.70;99.90;;;;;;5088865;28;20446;-57
2023/06/14 05:02:06;;;;;;;4.63;2.40;;;14.90;99.90;;;;;;5090202;28;20082;-57
2023/06/14 05:04:32;;;;;;;6.65;2.60;;;15.00;99.90;;;;;;5091456;28;20050;-56
2023/06/14 05:06:58;;;;;;;7.47;2.67;;;14.10;99.90;;;;;;5072474;28;20150;-56
2023/06/14 05:09:24;;;;;;;6.30;2.65;;;15.10;99.90;;;;;;5089190;28;20127;-56
2023/06/14 05:11:50;;;;;;;6.97;2.88;;;15.10;99.90;;;;;;5091841;28;20047;-56
2023/06/14 05:14:17;;;;;;;5.78;2.40;;;15.30;99.90;;;;;;5092948;28;20043;-57
2023/06/14 05:16:43;;;;;;;7.55;2.55;;;15.30;99.90;;;;;;5075445;28;20097;-56
2023/06/14 05:19:10;;;;;;;10.88;3.88;;;15.20;99.90;;;;;;5095563;28;20169;-55
2023/06/14 05:21:37;;;;;;;6.63;2.35;;;15.30;99.90;;;;;;5094308;28;20039;-56
2023/06/14 05:24:03;;;;;;;8.38;2.78;;;15.50;99.90;;;;;;5093290;28;20044;-57
2023/06/14 05:26:28;;;;;;;6.47;2.33;;;15.50;99.90;;;;;;5093419;28;20076;-56
2023/06/14 05:29:00;;;;;;;8.45;3.53;;;15.40;99.90;;;;;;5093895;28;20047;-57
2023/06/14 05:31:26;;;;;;;6.75;2.75;;;15.60;99.90;;;;;;5092713;28;20071;-56
2023/06/14 05:33:53;;;;;;;8.77;2.92;;;15.80;99.90;;;;;;5092759;28;20775;-57
2023/06/14 05:36:22;;;;;;;6.95;2.50;;;15.80;99.90;;;;;;5074515;28;20120;-56
2023/06/14 05:38:47;;;;;;;7.45;2.15;;;16.00;99.90;;;;;;5093230;28;20043;-56
2023/06/14 05:41:13;;;;;;;12.65;4.35;;;16.00;99.90;;;;;;5095468;28;20089;-56
2023/06/14 05:43:39;;;;;;;7.88;2.88;;;16.00;99.90;;;;;;5095843;28;20230;-57
2023/06/14 05:46:05;;;;;;;10.23;2.65;;;16.10;99.90;;;;;;5093284;28;20051;-56
2023/06/14 05:48:31;;;;;;;7.20;2.50;;;16.20;99.90;;;;;;5094315;28;20070;-56
2023/06/14 05:50:57;;;;;;;9.95;2.80;;;16.20;99.90;;;;;;5095783;28;20039;-57
2023/06/14 05:53:23;;;;;;;7.25;2.95;;;16.40;99.90;;;;;;5076625;28;20081;-56
2023/06/14 05:55:51;;;;;;;5.25;2.65;;;16.40;99.90;;;;;;5093845;28;20122;-56
2023/06/14 05:58:17;;;;;;;4.70;2.50;;;16.50;99.90;;;;;;5093523;28;20055;-56
2023/06/14 06:00:43;;;;;;;5.80;2.50;;;16.40;99.90;;;;;;5094105;28;20051;-56
2023/06/14 06:03:09;;;;;;;7.47;2.90;;;16.60;99.90;;;;;;5094935;28;20393;-56
2023/06/14 06:05:34;;;;;;;8.88;2.60;;;16.70;99.90;;;;;;5093054;28;20496;-57
2023/06/14 06:08:00;;;;;;;7.18;2.38;;;16.80;99.90;;;;;;5076681;28;20032;-56
2023/06/14 06:10:26;;;;;;;5.63;2.58;;;16.90;99.90;;;;;;5094703;28;20391;-56
2023/06/14 06:12:54;;;;;;;5.32;2.30;;;17.10;99.90;;;;;;5095101;28;20181;-56
2023/06/14 06:15:20;;;;;;;8.90;2.60;;;17.30;99.90;;;;;;5096383;28;20043;-56
2023/06/14 06:17:46;;;;;;;10.80;2.55;;;17.80;99.90;;;;;;5093793;28;20062;-56
2023/06/14 06:20:12;;;;;;;6.95;2.65;;;18.30;99.90;;;;;;5096267;28;20040;-56
2023/06/14 06:22:38;;;;;;;6.70;2.50;;;18.40;99.90;;;;;;5092528;28;20043;-57
2023/06/14 06:25:04;;;;;;;7.72;2.45;;;18.60;99.90;;;;;;5094101;28;20063;-56
2023/06/14 06:27:30;;;;;;;9.35;2.55;;;18.60;99.90;;;;;;5093555;28;20064;-56
2023/06/14 06:29:56;;;;;;;6.95;2.53;;;18.80;99.90;;;;;;5093561;28;20093;-56
2023/06/14 06:32:22;;;;;;;4.60;2.05;;;18.80;99.90;;;;;;5093176;28;20076;-56
2023/06/14 06:34:47;;;;;;;6.25;2.30;;;18.80;99.90;;;;;;5094029;28;20495;-58
2023/06/14 06:37:14;;;;;;;5.05;1.95;;;18.70;99.90;;;;;;5093068;28;20074;-56
2023/06/14 06:39:39;;;;;;;9.35;2.33;;;19.10;99.90;;;;;;5092437;28;20051;-56
2023/06/14 06:42:06;;;;;;;5.88;2.10;;;19.00;99.90;;;;;;5092395;28;20330;-56
2023/06/14 06:44:32;;;;;;;4.85;2.33;;;19.00;99.90;;;;;;5074447;28;20039;-57
2023/06/14 06:46:58;;;;;;;7.90;2.42;;;19.40;99.90;;;;;;5094167;28;20067;-57
2023/06/14 06:49:24;;;;;;;5.32;2.30;;;19.40;99.90;;;;;;5094650;28;20188;-57
2023/06/14 06:52:01;;;;;;;8.27;1.98;;;20.00;99.90;;;;;;5093212;28;20050;-56
2023/06/14 06:54:27;;;;;;;9.80;2.38;;;20.40;99.90;;;;;;5093167;28;20126;-56
2023/06/14 06:56:53;;;;;;;7.03;1.92;;;20.70;99.90;;;;;;5091895;28;20100;-56
2023/06/14 06:59:19;;;;;;;5.65;2.08;;;20.70;99.90;;;;;;5073742;28;20076;-56
2023/06/14 07:01:45;;;;;;;5.65;2.30;;;20.50;99.90;;;;;;5093246;28;20533;-56
2023/06/14 07:04:10;;;;;;;5.00;1.80;;;20.70;99.90;;;;;;5092338;28;20590;-56
2023/06/14 07:06:37;;;;;;;6.13;2.08;;;20.70;99.90;;;;;;5092899;28;20047;-57
2023/06/14 07:09:05;;;;;;;6.22;2.25;;;20.80;99.90;;;;;;5093423;28;20310;-56
2023/06/14 07:11:30;;;;;;;5.75;2.35;;;21.10;99.90;;;;;;5093581;28;20771;-56
2023/06/14 07:13:56;;;;;;;3.72;1.80;;;22.00;99.90;;;;;;5092525;28;20050;-56
2023/06/14 07:16:23;;;;;;;8.40;2.05;;;23.10;99.90;;;;;;5093680;28;20036;-57
2023/06/14 07:18:49;;;;;;;7.18;2.20;;;23.80;99.90;;;;;;5094521;28;20714;-57
2023/06/14 07:21:14;;;;;;;5.75;2.00;;;24.40;99.90;;;;;;5095668;28;20048;-57
2023/06/14 07:23:40;;;;;;;9.02;2.40;;;25.40;99.90;;;;;;5093123;28;20088;-57
2023/06/14 07:26:06;;;;;;;6.53;2.33;;;26.30;99.90;;;;;;5092372;28;20535;-57
2023/06/14 07:28:32;;;;;;;6.82;2.15;;;26.30;99.90;;;;;;5093160;28;20126;-56
2023/06/14 07:30:57;;;;;;;4.68;2.03;;;26.80;99.90;;;;;;5075850;28;20046;-56
2023/06/14 07:33:23;;;;;;;6.50;2.10;;;27.40;99.90;;;;;;5091612;28;20058;-55
2023/06/14 07:35:49;;;;;;;8.13;1.65;;;27.70;99.50;;;;;;5092688;28;20073;-56
2023/06/14 07:38:15;;;;;;;4.55;1.98;;;28.30;99.30;;;;;;5092815;28;20063;-57
2023/06/14 07:40:41;;;;;;;8.00;1.75;;;28.50;99.10;;;;;;5092354;28;20217;-56
2023/06/14 07:43:07;;;;;;;3.58;1.52;;;28.40;98.20;;;;;;5074206;28;20040;-57
2023/06/14 07:45:32;;;;;;;6.22;1.77;;;29.10;97.80;;;;;;5091100;28;21856;-56
2023/06/14 07:47:58;;;;;;;8.80;1.92;;;29.50;97.20;;;;;;5074309;28;20048;-57
2023/06/14 07:50:24;;;;;;;4.47;1.60;;;29.40;97.00;;;;;;5075501;28;20488;-57
2023/06/14 07:52:49;;;;;;;4.45;1.60;;;29.70;97.40;;;;;;5091073;28;20039;-57
2023/06/14 07:55:15;;;;;;;8.25;1.80;;;29.70;96.20;;;;;;5091108;28;20051;-57
2023/06/14 07:57:42;;;;;;;5.07;2.03;;;29.70;95.80;;;;;;5091605;28;20043;-56
2023/06/14 08:00:10;;;;;;;6.03;1.50;;;29.50;95.90;;;;;;5090474;28;20057;-57
2023/06/14 08:02:36;;;;;;;6.30;1.77;;;29.10;95.10;;;;;;5073298;28;20426;-56
2023/06/14 08:05:02;;;;;;;6.10;1.52;;;28.90;95.30;;;;;;5091616;28;20081;-56
2023/06/14 08:07:28;;;;;;;4.70;1.67;;;28.40;95.50;;;;;;5091786;28;20097;-56
2023/06/14 08:09:53;;;;;;;5.15;1.60;;;28.50;94.70;;;;;;5091716;28;20354;-56
2023/06/14 08:12:19;;;;;;;6.05;1.83;;;28.80;95.30;;;;;;5090872;28;20439;-57
2023/06/14 08:14:45;;;;;;;3.75;2.08;;;28.90;95.30;;;;;;5092601;28;20344;-56
2023/06/14 08:17:11;;;;;;;7.03;2.20;;;28.50;95.50;;;;;;5091565;28;20043;-57
2023/06/14 08:19:36;;;;;;;5.70;1.83;;;28.90;95.50;;;;;;5071857;28;20040;-57
2023/06/14 08:22:03;;;;;;;5.80;1.67;;;28.90;95.60;;;;;;5092267;28;20044;-56
2023/06/14 08:24:29;;;;;;;9.38;1.83;;;29.60;95.70;;;;;;5090800;28;20098;-56
2023/06/14 08:26:56;;;;;;;8.23;2.00;;;29.30;94.60;;;;;;5090686;28;20032;-56
2023/06/14 08:29:22;;;;;;;7.30;2.00;;;29.30;95.50;;;;;;5090950;28;20071;-56
2023/06/14 08:31:48;;;;;;;4.60;1.80;;;29.20;94.60;;;;;;5092460;28;20071;-56
2023/06/14 08:34:14;;;;;;;4.35;1.90;;;28.90;95.00;;;;;;5091194;28;20040;-57
2023/06/14 08:36:40;;;;;;;10.48;1.95;;;28.50;94.90;;;;;;5091159;28;20434;-56
2023/06/14 08:39:08;;;;;;;7.38;1.90;;;28.60;95.00;;;;;;5092232;28;20404;-56
2023/06/14 08:41:35;;;;;;;6.28;1.70;;;28.50;94.90;;;;;;5074215;28;20055;-57
2023/06/14 08:44:01;;;;;;;9.25;1.80;;;28.60;95.40;;;;;;5092932;28;20039;-56
2023/06/14 08:46:29;;;;;;;5.38;1.90;;;28.60;95.00;;;;;;5092004;28;20098;-55
2023/06/14 08:48:58;;;;;;;5.50;1.48;;;28.30;94.60;;;;;;5089763;28;20039;-56
2023/06/14 08:51:26;;;;;;;6.75;2.10;;;28.10;94.90;;;;;;5092754;28;20047;-56
2023/06/14 08:53:57;;;;;;;3.83;1.60;;;29.70;95.70;;;;;;5090673;28;20050;-56
2023/06/14 08:56:27;;;;;;;7.32;1.50;;;28.20;95.00;;;;;;5090666;28;20486;-55
2023/06/14 08:58:54;;;;;;;5.97;1.60;;;27.70;94.70;;;;;;5090573;28;20472;-54
2023/06/14 09:01:23;;;;;;;6.47;1.70;;;27.30;95.00;;;;;;5092489;28;20379;-56
2023/06/14 09:03:50;;;;;;;5.65;1.83;;;27.10;96.00;;;;;;5091914;28;20829;-57
2023/06/14 09:06:18;;;;;;;5.38;1.75;;;27.10;95.50;;;;;;5090347;28;20044;-57
2023/06/14 09:08:46;;;;;;;6.80;1.63;;;27.00;95.50;;;;;;5088363;28;20492;-56
2023/06/14 09:11:18;;;;;;;4.40;1.67;;;26.60;95.30;;;;;;5088321;28;20039;-56
2023/06/14 09:13:45;;;;;;;4.50;1.85;;;26.40;95.70;;;;;;5090841;28;20126;-55
2023/06/14 09:16:11;;;;;;;5.10;1.77;;;25.90;95.70;;;;;;5090941;28;20059;-56
2023/06/14 09:18:38;;;;;;;6.22;1.88;;;23.70;95.80;;;;;;5090683;28;20629;-56
2023/06/14 09:21:07;;;;;;;6.07;1.80;;;25.40;97.10;;;;;;5091739;28;20040;-56
2023/06/14 09:23:38;;;;;;;4.30;1.90;;;24.90;97.80;;;;;;5089501;28;20047;-56
2023/06/14 09:26:11;;;;;;;6.15;2.05;;;24.70;97.20;;;;;;5089408;28;20044;-55
2023/06/14 09:28:42;;;;;;;5.53;1.83;;;24.60;98.40;;;;;;5089763;28;20054;-56
2023/06/14 09:31:09;;;;;;;6.13;1.83;;;26.90;99.40;;;;;;5074334;28;20135;-56
2023/06/14 09:33:35;;;;;;;5.15;1.88;;;24.50;97.90;;;;;;5090406;28;20424;-56
2023/06/14 09:36:01;;;;;;;4.63;1.73;;;24.40;98.40;;;;;;5089192;28;20870;-56
2023/06/14 09:38:27;;;;;;;6.05;1.90;;;24.30;98.50;;;;;;5090547;28;20575;-56
2023/06/14 09:40:55;;;;;;;6.10;1.98;;;24.50;98.20;;;;;;5090313;28;20032;-56
2023/06/14 09:43:21;;;;;;;4.68;1.67;;;24.60;98.10;;;;;;5088691;28;20055;-56
2023/06/14 09:45:48;;;;;;;8.05;1.90;;;24.10;97.80;;;;;;5089739;28;20048;-55
2023/06/14 09:48:17;;;;;;;4.43;1.98;;;24.10;98.10;;;;;;5088032;28;20043;-56
2023/06/14 09:50:46;;;;;;;9.20;1.67;;;24.10;98.10;;;;;;5092306;28;20523;-56
2023/06/14 09:53:13;;;;;;;8.32;2.25;;;24.00;98.20;;;;;;5092171;28;20454;-59
2023/06/14 09:55:41;;;;;;;4.47;1.70;;;24.00;98.20;;;;;;5091851;28;20392;-56
2023/06/14 09:58:09;;;;;;;4.35;1.75;;;21.90;98.00;;;;;;5090790;28;20047;-57
2023/06/14 10:00:36;;;;;;;4.60;1.60;;;24.40;98.90;;;;;;5092148;28;20055;-56
2023/06/14 10:03:19;;;;;;;8.02;2.65;;;24.20;98.80;;;;;;5096032;28;20058;-56
2023/06/14 10:05:48;;;;;;;5.53;2.10;;;24.20;98.70;;;;;;5093508;28;20043;-56
2023/06/14 10:08:16;;;;;;;3.83;2.00;;;24.20;98.90;;;;;;5093635;28;20051;-56
2023/06/14 10:10:43;;;;;;;6.15;1.88;;;24.40;99.10;;;;;;5093776;28;20499;-56
2023/06/14 10:13:10;;;;;;;3.97;1.83;;;24.50;98.50;;;;;;5094716;28;20053;-56
2023/06/14 10:16:05;;;;;;;6.10;2.00;;;24.30;98.60;;;;;;5095262;28;20066;-56
2023/06/14 10:18:35;;;;;;;6.35;2.08;;;24.50;98.30;;;;;;5092456;28;20040;-56
2023/06/14 10:21:33;;;;;;;6.55;1.70;;;24.40;98.80;;;;;;5094352;28;20050;-56
2023/06/14 10:24:04;;;;;;;5.05;1.98;;;24.40;98.00;;;;;;5093570;28;20371;-56
2023/06/14 10:26:30;;;;;;;5.22;1.98;;;24.40;98.40;;;;;;5093185;28;20035;-56
2023/06/14 10:29:01;;;;;;;5.43;1.90;;;24.80;98.70;;;;;;5071255;28;20442;-56
2023/06/14 10:31:44;;;;;;;4.20;1.85;;;24.80;98.30;;;;;;5092651;28;20404;-57
2023/06/14 10:34:11;;;;;;;5.05;1.63;;;25.00;97.50;;;;;;5094514;28;20069;-56
2023/06/14 10:36:41;;;;;;;7.82;1.88;;;25.30;98.20;;;;;;5093192;28;20635;-56
2023/06/14 10:39:17;;;;;;;7.78;2.00;;;25.00;97.80;;;;;;5092842;28;20043;-57
2023/06/14 10:41:54;;;;;;;3.78;1.48;;;24.80;97.70;;;;;;5075828;28;20047;-57
2023/06/14 10:44:20;;;;;;;6.85;2.00;;;24.60;97.60;;;;;;5092728;28;20626;-57
2023/06/14 10:46:47;;;;;;;6.57;2.40;;;25.10;98.60;;;;;;5075190;28;20040;-57
2023/06/14 10:49:18;;;;;;;12.57;2.35;;;24.90;98.00;;;;;;5092353;28;20455;-56
2023/06/14 10:51:48;;;;;;;2.95;1.70;;;25.10;98.20;;;;;;5094678;28;20043;-57
2023/06/14 10:54:20;;;;;;;3.72;1.40;;;25.20;97.70;;;;;;5093989;28;20067;-56
2023/06/14 10:56:50;;;;;;;6.68;1.80;;;25.00;97.40;;;;;;5074107;28;20484;-56
2023/06/14 10:59:17;;;;;;;5.38;1.70;;;25.10;97.90;;;;;;5092281;28;20054;-56
2023/06/14 11:02:05;;;;;;;6.22;1.90;;;24.90;97.90;;;;;;5092600;28;20057;-56
2023/06/14 11:04:56;;;;;;;4.82;1.80;;;24.90;98.00;;;;;;5091002;28;20268;-56
2023/06/14 11:07:22;;;;;;;6.07;1.80;;;25.10;98.20;;;;;;5091974;28;20047;-56
2023/06/14 11:10:16;;;;;;;6.60;1.95;;;25.00;98.10;;;;;;5072553;28;20536;-55
2023/06/14 11:12:48;;;;;;;7.68;1.73;;;24.80;97.40;;;;;;5088305;28;20913;-57
2023/06/14 11:15:14;;;;;;;9.65;2.35;;;25.10;99.00;;;;;;5092582;28;20035;-55
2023/06/14 11:17:51;;;;;;;7.45;1.48;;;25.20;98.60;;;;;;5092682;28;20047;-57
2023/06/14 11:20:17;;;;;;;5.65;1.85;;;25.30;97.60;;;;;;5092919;28;20472;-56
2023/06/14 11:22:43;;;;;;;5.75;2.03;;;25.10;97.60;;;;;;5093187;28;20682;-56
2023/06/14 11:25:10;;;;;;;7.78;1.98;;;25.10;97.90;;;;;;5092671;28;20518;-56
2023/06/14 11:27:35;;;;;;;5.40;1.98;;;25.40;97.90;;;;;;5093124;28;20043;-57
2023/06/14 11:30:02;;;;;;;14.35;2.38;;;25.40;98.60;;;;;;5073917;28;20058;-56
2023/06/14 11:32:28;;;;;;;5.57;1.70;;;25.30;97.50;;;;;;5092776;28;20424;-57
2023/06/14 11:34:53;;;;;;;8.75;1.83;;;25.70;97.90;;;;;;5093709;28;20031;-56
2023/06/14 11:37:19;;;;;;;6.43;1.85;;;25.50;98.00;;;;;;5092999;28;20092;-56
2023/06/14 11:39:45;;;;;;;10.95;1.80;;;25.30;97.80;;;;;;5092073;28;20074;-56
2023/06/14 11:42:15;;;;;;;7.00;1.40;;;25.40;98.20;;;;;;5092741;28;20060;-56
2023/06/14 11:44:41;;;;;;;6.15;1.50;;;25.60;97.40;;;;;;5091895;28;20040;-56
2023/06/14 11:47:07;;;;;;;5.80;1.40;;;25.60;97.70;;;;;;5091646;28;20105;-56
2023/06/14 11:49:36;;;;;;;3.53;1.35;;;25.60;97.50;;;;;;5090032;28;20507;-56
2023/06/14 11:52:02;;;;;;;7.63;1.52;;;25.50;97.10;;;;;;5093216;28;20489;-56
2023/06/14 11:54:28;;;;;;;5.63;1.63;;;25.50;97.60;;;;;;5073902;28;21084;-56
2023/06/14 11:56:54;;;;;;;4.45;1.60;;;25.30;97.20;;;;;;5089926;28;20052;-56
2023/06/14 11:59:20;;;;;;;6.15;1.40;;;25.00;97.20;;;;;;5090555;28;20055;-56
2023/06/14 12:01:47;;;;;;;4.68;1.60;;;25.20;96.90;;;;;;5091235;28;20550;-56
2023/06/14 12:04:13;;;;;;;5.07;1.70;;;25.00;97.30;;;;;;5090312;28;20043;-56
2023/06/14 12:06:39;;;;;;;5.82;1.45;;;25.10;97.30;;;;;;5090433;28;20039;-51
2023/06/14 12:09:10;;;;;;;6.78;1.35;;;25.00;97.10;;;;;;5090857;28;20645;-56
2023/06/14 12:11:36;;;;;;;6.55;1.30;;;24.90;97.50;;;;;;5089574;28;20046;-57
2023/06/14 12:14:06;;;;;;;4.43;1.55;;;25.10;97.90;;;;;;5089499;28;20043;-56
2023/06/14 12:16:33;;;;;;;4.65;1.67;;;25.30;97.80;;;;;;5091467;28;20256;-56
2023/06/14 12:19:16;;;;;;;5.28;1.20;;;24.90;96.60;;;;;;5090402;28;20390;-57
2023/06/14 12:21:43;;;;;;;4.65;1.13;;;24.90;97.30;;;;;;5092113;28;20047;-56
2023/06/14 12:24:12;;;;;;;7.72;1.50;;;24.90;97.10;;;;;;5088942;28;20044;-56
2023/06/14 12:26:42;;;;;;;5.88;1.40;;;24.90;97.00;;;;;;5073172;28;20050;-56
2023/06/14 12:29:08;;;;;;;8.88;1.60;;;24.70;96.80;;;;;;5091010;28;20073;-57
2023/06/14 12:31:34;;;;;;;2.65;1.20;;;24.70;97.30;;;;;;5089653;28;20085;-55
2023/06/14 12:34:00;;;;;;;2.90;1.38;;;24.50;97.10;;;;;;5090164;28;20532;-56
2023/06/14 12:36:26;;;;;;;1.88;1.02;;;24.40;97.70;;;;;;5091914;28;21016;-57
2023/06/14 12:38:54;;;;;;;5.05;1.33;;;24.80;97.40;;;;;;5089089;28;20134;-57
2023/06/14 12:41:22;;;;;;;5.95;2.17;;;24.90;97.50;;;;;;5091510;28;20108;-58
2023/06/14 12:43:48;;;;;;;3.80;1.02;;;25.00;98.00;;;;;;5091446;28;20428;-57
2023/06/14 12:46:14;;;;;;;2.45;1.30;;;25.30;97.00;;;;;;5092163;28;20055;-57
2023/06/14 12:48:40;;;;;;;3.70;1.40;;;25.30;96.60;;;;;;5090065;28;20814;-57